Time;durP1;ratioP1;P1;durP2;ratioP2;P2;SDS_P1;SDS_P2;PMS_P1;PMS_P2;Temp;Humidity;BMP_temperature;BMP_pressure;BME280_temperature;BME280_humidity;BME280_pressure;Samples;Min_cycle;Max_cycle;Signal;HPM_P1;HPM_P2
2022/09/20 00:04:12;;;;;;;9.67;2.23;;;11.00;99.90;;;;;;10463913;28;20675;-75
2022/09/20 00:09:13;;;;;;;6.33;1.93;;;11.00;99.90;;;;;;10483301;28;20230;-75
2022/09/20 00:14:14;;;;;;;5.23;2.03;;;11.10;99.90;;;;;;10477554;28;20219;-77
2022/09/20 00:19:20;;;;;;;5.00;2.13;;;11.20;99.90;;;;;;10474601;28;20703;-76
2022/09/20 00:24:21;;;;;;;3.67;1.73;;;11.20;99.90;;;;;;10483313;28;20223;-77
2022/09/20 00:29:22;;;;;;;9.60;2.20;;;11.10;99.90;;;;;;10489521;28;20226;-76
2022/09/20 00:39:42;;;;;;;5.77;1.87;;;11.20;99.90;;;;;;10484494;28;20592;-77
2022/09/20 00:45:02;;;;;;;3.47;2.20;;;11.20;99.90;;;;;;10480849;28;20219;-77
2022/09/20 00:50:32;;;;;;;5.27;2.10;;;11.10;99.90;;;;;;10477920;28;20250;-78
2022/09/20 00:55:35;;;;;;;6.57;2.03;;;11.00;99.90;;;;;;10467841;28;20229;-77
2022/09/20 01:00:37;;;;;;;4.07;2.00;;;10.90;99.90;;;;;;10477742;28;20234;-75
2022/09/20 01:05:40;;;;;;;5.23;2.10;;;10.80;99.90;;;;;;10478131;28;20305;-76
2022/09/20 01:10:41;;;;;;;4.57;2.13;;;10.80;99.90;;;;;;10475370;28;20274;-77
2022/09/20 01:15:47;;;;;;;5.87;2.30;;;10.80;99.90;;;;;;10463832;28;20232;-76
2022/09/20 01:20:49;;;;;;;8.60;2.70;;;10.80;99.90;;;;;;10474925;28;20285;-76
2022/09/20 01:26:10;;;;;;;7.27;2.70;;;10.80;99.90;;;;;;10466882;28;20676;-76
2022/09/20 01:31:33;;;;;;;5.03;2.50;;;10.80;99.90;;;;;;10469870;28;20817;-76
2022/09/20 01:37:09;;;;;;;4.43;2.10;;;10.70;99.90;;;;;;10453514;28;20222;-76
2022/09/20 01:42:12;;;;;;;7.33;2.70;;;10.50;99.90;;;;;;10466909;28;20234;-76
2022/09/20 01:47:29;;;;;;;6.53;2.50;;;10.40;99.90;;;;;;10452904;28;20231;-75
2022/09/20 01:52:55;;;;;;;5.57;2.23;;;10.20;99.90;;;;;;10466272;28;20230;-74
2022/09/20 01:58:23;;;;;;;7.00;2.43;;;10.10;99.90;;;;;;10470102;28;20223;-74
2022/09/20 02:03:45;;;;;;;5.77;2.10;;;10.00;99.90;;;;;;10471710;28;20715;-74
2022/09/20 02:09:16;;;;;;;9.20;3.33;;;9.90;99.90;;;;;;10466250;28;20737;-73
2022/09/20 02:14:54;;;;;;;7.93;2.80;;;9.80;99.90;;;;;;10490291;28;20759;-73
2022/09/20 02:20:19;;;;;;;8.97;2.70;;;9.80;99.90;;;;;;10475942;28;20352;-75
2022/09/20 02:25:38;;;;;;;9.00;3.00;;;9.70;99.90;;;;;;10462731;28;20264;-73
2022/09/20 02:30:57;;;;;;;6.17;2.70;;;9.60;99.90;;;;;;10480021;28;20238;-73
2022/09/20 02:36:00;;;;;;;5.47;2.57;;;9.50;99.90;;;;;;10460729;28;20684;-74
2022/09/20 02:41:37;;;;;;;7.27;2.30;;;9.40;99.90;;;;;;10475505;28;20692;-74
2022/09/20 02:46:51;;;;;;;5.90;2.73;;;9.20;99.90;;;;;;10472963;28;20638;-74
2022/09/20 02:52:13;;;;;;;8.93;2.90;;;9.20;99.90;;;;;;10476946;28;20986;-73
2022/09/20 02:57:32;;;;;;;8.93;3.17;;;9.20;99.90;;;;;;10468291;28;20284;-74
2022/09/20 03:02:53;;;;;;;7.83;3.07;;;9.10;99.90;;;;;;10464594;28;20709;-74
2022/09/20 03:08:12;;;;;;;5.23;3.17;;;9.10;99.90;;;;;;10479136;28;20759;-76
2022/09/20 03:13:45;;;;;;;8.00;3.37;;;9.00;99.90;;;;;;10470507;28;20752;-76
2022/09/20 03:18:49;;;;;;;6.50;3.53;;;9.00;99.90;;;;;;10471215;28;20225;-74
2022/09/20 03:23:58;;;;;;;6.90;3.10;;;9.00;99.90;;;;;;10461416;28;20221;-74
2022/09/20 03:29:33;;;;;;;4.50;2.97;;;8.90;99.90;;;;;;10476484;28;20709;-75
2022/09/20 03:35:01;;;;;;;6.30;3.37;;;8.90;99.90;;;;;;10477910;28;20230;-75
2022/09/20 03:40:22;;;;;;;8.30;3.73;;;8.90;99.90;;;;;;10482996;28;20230;-74
2022/09/20 03:45:43;;;;;;;8.73;3.83;;;8.80;99.90;;;;;;10475276;28;20568;-74
2022/09/20 03:51:03;;;;;;;7.53;3.73;;;8.80;99.90;;;;;;10478568;28;20712;-76
2022/09/20 03:56:34;;;;;;;10.10;3.80;;;8.70;99.90;;;;;;10465529;28;20754;-75
2022/09/20 04:02:12;;;;;;;7.37;3.63;;;8.70;99.90;;;;;;10477609;28;20230;-76
2022/09/20 04:07:47;;;;;;;7.60;4.20;;;8.70;99.90;;;;;;10474131;28;20218;-76
2022/09/20 04:13:25;;;;;;;8.00;4.13;;;8.60;99.90;;;;;;10487426;28;20291;-77
2022/09/20 04:18:51;;;;;;;7.23;4.20;;;8.60;99.90;;;;;;10460116;28;20466;-74
2022/09/20 04:23:59;;;;;;;8.27;4.03;;;8.60;99.90;;;;;;10466850;28;20216;-74
2022/09/20 04:29:38;;;;;;;8.10;3.77;;;8.60;99.90;;;;;;10470866;28;20304;-76
2022/09/20 04:40:34;;;;;;;11.73;4.60;;;8.60;99.90;;;;;;10473359;28;20209;-67
2022/09/20 04:46:07;;;;;;;9.70;4.60;;;8.60;99.90;;;;;;10476848;28;20277;-66
2022/09/20 04:51:39;;;;;;;7.97;4.40;;;8.60;99.90;;;;;;10479381;28;20230;-67
2022/09/20 04:56:55;;;;;;;9.47;4.43;;;8.60;99.90;;;;;;10475748;28;20217;-66
2022/09/20 05:02:32;;;;;;;14.07;5.27;;;8.50;99.90;;;;;;10463293;28;20254;-67
2022/09/20 05:08:13;;;;;;;12.50;5.03;;;8.50;99.90;;;;;;10471722;28;20245;-67
2022/09/20 05:13:35;;;;;;;10.13;4.90;;;8.60;99.90;;;;;;10469954;28;20700;-68
2022/09/20 05:18:54;;;;;;;9.77;5.20;;;8.60;99.90;;;;;;10466384;28;20283;-76
2022/09/20 05:23:54;;;;;;;9.20;4.87;;;8.70;99.90;;;;;;10492997;28;20239;-74
2022/09/20 05:29:21;;;;;;;14.27;5.83;;;8.80;99.90;;;;;;10463653;28;20219;-75
2022/09/20 05:34:43;;;;;;;15.83;5.83;;;8.80;99.90;;;;;;10447192;28;20220;-74
2022/09/20 05:40:25;;;;;;;9.60;4.87;;;8.80;99.90;;;;;;10480044;28;20223;-75
2022/09/20 05:45:57;;;;;;;11.40;5.03;;;8.80;99.90;;;;;;10361085;28;20319;-75
2022/09/20 05:51:22;;;;;;;5.87;3.90;;;8.80;99.90;;;;;;10460111;28;20230;-74
2022/09/20 05:56:51;;;;;;;9.40;4.60;;;9.00;99.90;;;;;;10454564;28;20223;-75
2022/09/20 06:02:27;;;;;;;12.00;5.03;;;9.20;99.90;;;;;;10478355;28;20230;-74
2022/09/20 06:08:25;;;;;;;8.43;4.27;;;9.60;99.90;;;;;;10411373;28;20217;-75
2022/09/20 06:13:44;;;;;;;11.00;4.30;;;10.10;99.90;;;;;;10456643;28;20255;-74
2022/09/20 06:18:49;;;;;;;9.10;3.77;;;10.40;99.90;;;;;;10479099;28;20789;-75
2022/09/20 06:23:55;;;;;;;8.73;3.87;;;10.70;99.90;;;;;;10471260;28;20575;-76
2022/09/20 06:29:04;;;;;;;10.70;3.67;;;10.90;99.90;;;;;;10475089;28;20215;-75
2022/09/20 06:34:12;;;;;;;8.73;4.80;;;11.10;99.90;;;;;;10469995;28;20260;-75
2022/09/20 06:45:04;;;;;;;6.97;3.43;;;11.60;99.90;;;;;;10466890;28;20702;-75
2022/09/20 06:50:05;;;;;;;10.97;3.70;;;11.90;99.90;;;;;;10469015;28;20223;-73
2022/09/20 06:55:12;;;;;;;7.50;3.50;;;12.10;99.90;;;;;;10468487;28;20184;-74
2022/09/20 07:00:14;;;;;;;9.43;3.80;;;12.30;99.90;;;;;;10467874;28;20200;-74
2022/09/20 07:05:16;;;;;;;9.40;3.63;;;12.60;99.90;;;;;;10480054;28;20590;-76
2022/09/20 07:10:17;;;;;;;7.77;3.43;;;12.90;99.90;;;;;;10485257;28;20287;-75
2022/09/20 07:15:21;;;;;;;9.40;3.50;;;13.30;99.90;;;;;;10483897;28;20304;-75
2022/09/20 07:20:22;;;;;;;8.97;3.33;;;13.70;99.90;;;;;;10477473;28;20266;-75
2022/09/20 07:25:22;;;;;;;7.67;3.27;;;14.20;99.90;;;;;;10475735;28;20282;-74
2022/09/20 07:30:26;;;;;;;11.70;2.80;;;14.80;99.90;;;;;;10478286;28;20568;-74
2022/09/20 07:35:27;;;;;;;7.87;3.17;;;15.40;99.90;;;;;;10483242;28;20688;-75
2022/09/20 07:40:27;;;;;;;7.83;3.00;;;15.70;99.90;;;;;;10475619;28;20235;-74
2022/09/20 07:45:29;;;;;;;18.23;3.33;;;16.50;99.90;;;;;;10481053;28;21395;-75
2022/09/20 07:50:31;;;;;;;6.13;2.63;;;18.40;99.90;;;;;;10478043;28;20788;-75
2022/09/20 07:55:33;;;;;;;5.30;2.10;;;23.00;99.90;;;;;;10473959;28;20211;-74
2022/09/20 08:00:34;;;;;;;10.77;3.00;;;25.30;87.20;;;;;;10482693;28;20232;-75
2022/09/20 08:05:40;;;;;;;7.80;2.47;;;26.10;74.30;;;;;;10484687;28;20290;-75
2022/09/20 08:10:41;;;;;;;5.73;2.90;;;28.30;64.80;;;;;;10485231;28;20231;-74
2022/09/20 08:15:42;;;;;;;7.33;2.97;;;29.50;56.00;;;;;;10486512;28;20693;-75
2022/09/20 08:20:43;;;;;;;7.13;3.10;;;30.80;51.40;;;;;;10468429;28;20222;-76
2022/09/20 08:25:43;;;;;;;8.03;2.80;;;32.10;47.20;;;;;;10468778;28;20215;-75
2022/09/20 08:30:44;;;;;;;8.97;3.50;;;32.40;44.50;;;;;;10477291;28;20225;-75
2022/09/20 08:35:48;;;;;;;7.53;3.67;;;29.40;47.90;;;;;;10473394;28;20642;-75
2022/09/20 08:40:49;;;;;;;9.97;3.80;;;27.00;52.00;;;;;;10478486;28;20296;-74
2022/09/20 08:45:49;;;;;;;9.57;4.30;;;24.30;57.20;;;;;;10487983;28;20672;-74
2022/09/20 08:50:50;;;;;;;7.77;3.80;;;22.00;65.00;;;;;;10475103;28;20241;-75
2022/09/20 08:55:51;;;;;;;8.03;3.53;;;20.60;70.80;;;;;;10469445;28;20217;-74
2022/09/20 09:00:54;;;;;;;8.33;3.87;;;19.90;75.80;;;;;;10475308;28;20345;-76
2022/09/20 09:05:57;;;;;;;6.63;3.17;;;19.60;78.60;;;;;;10477126;28;20217;-75
2022/09/20 09:11:07;;;;;;;10.73;3.70;;;20.60;78.90;;;;;;10467254;28;20254;-75
2022/09/20 09:16:13;;;;;;;7.57;3.03;;;24.70;62.20;;;;;;10481379;28;20304;-75
2022/09/20 09:21:26;;;;;;;5.33;2.40;;;27.80;55.90;;;;;;10454044;28;20221;-74
2022/09/20 09:26:27;;;;;;;4.20;1.93;;;29.60;48.10;;;;;;10471931;28;20253;-75
2022/09/20 09:31:28;;;;;;;3.83;2.40;;;29.40;46.50;;;;;;10479619;28;20254;-75
2022/09/20 09:36:32;;;;;;;5.93;2.30;;;29.70;43.40;;;;;;10477775;28;20299;-75
2022/09/20 09:41:34;;;;;;;6.77;2.37;;;31.60;40.10;;;;;;10471450;28;20237;-74
2022/09/20 09:46:38;;;;;;;4.83;2.33;;;30.60;38.20;;;;;;10476620;28;20223;-75
2022/09/20 09:51:42;;;;;;;5.10;2.67;;;27.50;45.50;;;;;;10474427;28;20227;-75
2022/09/20 09:57:04;;;;;;;7.23;2.37;;;28.90;43.00;;;;;;10473214;28;20214;-75
2022/09/20 10:02:16;;;;;;;5.37;2.13;;;30.90;40.10;;;;;;10478976;28;20227;-74
2022/09/20 10:07:31;;;;;;;8.67;2.43;;;32.70;36.20;;;;;;10475517;28;20228;-75
2022/09/20 10:12:47;;;;;;;3.83;1.70;;;33.90;35.10;;;;;;10476195;28;20280;-76
2022/09/20 10:18:17;;;;;;;4.40;1.50;;;35.60;31.70;;;;;;10475952;28;20213;-74
2022/09/20 10:23:54;;;;;;;6.13;2.03;;;33.10;32.60;;;;;;10470818;28;20567;-74
2022/09/20 10:29:07;;;;;;;4.13;2.23;;;31.20;35.60;;;;;;10397751;28;20217;-76
2022/09/20 10:34:34;;;;;;;5.77;2.20;;;28.00;39.90;;;;;;10477148;28;20306;-75
2022/09/20 10:39:39;;;;;;;6.97;2.60;;;24.80;46.90;;;;;;10472091;28;20218;-75
2022/09/20 10:45:25;;;;;;;5.00;2.40;;;22.80;52.30;;;;;;10473151;28;21055;-75
2022/09/20 10:50:52;;;;;;;4.63;1.90;;;21.60;55.70;;;;;;10414351;28;20245;-75
2022/09/20 10:56:20;;;;;;;4.83;2.33;;;21.00;56.70;;;;;;10464876;28;20943;-75
2022/09/20 11:01:46;;;;;;;4.27;2.27;;;20.90;59.80;;;;;;10467853;28;20237;-74
2022/09/20 11:07:02;;;;;;;6.97;2.20;;;20.80;61.70;;;;;;10472631;28;20218;-74
2022/09/20 11:12:20;;;;;;;6.30;1.83;;;20.90;62.90;;;;;;10482656;28;20229;-75
2022/09/20 11:17:34;;;;;;;3.20;1.77;;;24.50;54.80;;;;;;10470204;28;20233;-74
2022/09/20 11:22:47;;;;;;;7.00;2.40;;;24.10;53.00;;;;;;10466818;28;20213;-74
2022/09/20 11:28:27;;;;;;;5.57;2.10;;;22.20;57.20;;;;;;10463062;28;20692;-74
2022/09/20 11:33:35;;;;;;;7.33;3.47;;;21.00;61.20;;;;;;10469501;28;20238;-75
2022/09/20 11:38:59;;;;;;;6.37;2.43;;;20.40;62.00;;;;;;10485514;28;20226;-73
2022/09/20 11:44:10;;;;;;;4.50;1.90;;;19.80;63.10;;;;;;10469646;28;20226;-75
2022/09/20 11:49:15;;;;;;;2.50;1.93;;;19.30;65.20;;;;;;10475881;28;20215;-74
2022/09/20 11:54:40;;;;;;;3.23;1.73;;;19.00;66.40;;;;;;10483727;28;20231;-74
2022/09/20 11:59:49;;;;;;;4.33;1.87;;;18.90;65.00;;;;;;10479813;28;20911;-75
2022/09/20 12:04:52;;;;;;;4.20;1.90;;;19.00;66.50;;;;;;10483310;28;20230;-74
2022/09/20 12:09:59;;;;;;;2.67;1.47;;;19.70;62.30;;;;;;10480963;28;20699;-75
2022/09/20 12:15:04;;;;;;;5.33;2.07;;;19.90;58.60;;;;;;10466686;28;20704;-75
2022/09/20 12:20:34;;;;;;;3.07;1.70;;;20.00;60.80;;;;;;10481192;28;20226;-73
2022/09/20 12:25:38;;;;;;;3.50;1.50;;;20.10;61.40;;;;;;10470741;28;20224;-74
2022/09/20 12:30:42;;;;;;;6.30;1.77;;;19.80;60.80;;;;;;10477294;28;20706;-74
2022/09/20 12:35:58;;;;;;;4.40;1.90;;;19.80;61.60;;;;;;10478057;28;20221;-74
2022/09/20 12:40:59;;;;;;;5.47;1.90;;;20.10;59.40;;;;;;10462326;28;20797;-74
2022/09/20 12:46:01;;;;;;;4.10;1.83;;;20.40;59.30;;;;;;10478421;28;20219;-74
2022/09/20 12:56:45;;;;;;;2.27;1.47;;;19.80;59.00;;;;;;10477102;28;20220;-75
2022/09/20 13:01:45;;;;;;;2.67;1.53;;;19.50;59.10;;;;;;10475445;28;20227;-75
2022/09/20 13:06:47;;;;;;;3.80;1.53;;;19.40;59.60;;;;;;10459013;28;20216;-75
2022/09/20 13:12:01;;;;;;;2.70;1.53;;;19.10;60.90;;;;;;10475526;28;20231;-74
2022/09/20 13:17:08;;;;;;;3.53;1.70;;;19.20;58.90;;;;;;10481790;28;20217;-75
2022/09/20 13:22:44;;;;;;;4.30;1.70;;;19.40;57.60;;;;;;10473931;28;20216;-73
2022/09/20 13:28:04;;;;;;;4.63;1.73;;;19.40;60.30;;;;;;10458307;28;20243;-74
2022/09/20 13:33:24;;;;;;;4.93;1.93;;;19.70;61.70;;;;;;10482534;28;20217;-74
2022/09/20 13:38:30;;;;;;;4.83;1.93;;;19.80;62.40;;;;;;10472372;28;20216;-74
2022/09/20 13:43:41;;;;;;;5.50;1.70;;;19.80;64.20;;;;;;10476243;28;20222;-75
2022/09/20 13:48:46;;;;;;;4.47;1.80;;;19.60;63.50;;;;;;10475220;28;20596;-74
2022/09/20 13:53:46;;;;;;;3.57;2.00;;;19.00;62.20;;;;;;10464508;28;20225;-75
2022/09/20 13:58:48;;;;;;;4.77;2.23;;;18.00;73.60;;;;;;10474483;28;20224;-76
2022/09/20 14:03:49;;;;;;;4.97;2.30;;;17.40;79.30;;;;;;10476468;28;20261;-74
2022/09/20 14:08:50;;;;;;;6.50;2.23;;;17.40;79.70;;;;;;10479272;28;20311;-75
2022/09/20 14:13:54;;;;;;;5.50;2.50;;;17.60;77.00;;;;;;10462058;28;20767;-74
2022/09/20 14:18:56;;;;;;;5.67;2.47;;;17.90;79.20;;;;;;10469808;28;20220;-74
2022/09/20 14:24:03;;;;;;;4.67;2.23;;;18.10;77.90;;;;;;10477810;28;20825;-75
2022/09/20 14:29:39;;;;;;;4.77;2.17;;;17.80;74.70;;;;;;10466389;28;20229;-74
2022/09/20 14:34:40;;;;;;;3.47;1.73;;;17.40;74.90;;;;;;10472880;28;20264;-75
2022/09/20 14:40:00;;;;;;;4.33;1.70;;;17.30;76.70;;;;;;10473701;28;20350;-74
2022/09/20 14:45:03;;;;;;;3.27;1.70;;;17.20;76.00;;;;;;10486402;28;20306;-75
2022/09/20 14:50:37;;;;;;;6.30;2.07;;;17.10;76.50;;;;;;10469654;28;20786;-74
2022/09/20 14:55:55;;;;;;;2.57;1.60;;;17.20;77.30;;;;;;10463820;28;20216;-75
2022/09/20 15:01:03;;;;;;;5.77;1.87;;;17.10;77.60;;;;;;10475233;28;20711;-75
2022/09/20 15:06:05;;;;;;;3.30;2.07;;;17.00;77.30;;;;;;10469668;28;20223;-74
2022/09/20 15:11:06;;;;;;;4.70;2.17;;;16.80;78.10;;;;;;10476100;28;20227;-75
2022/09/20 15:16:07;;;;;;;2.43;1.70;;;16.70;78.70;;;;;;10476912;28;20232;-74
2022/09/20 15:21:10;;;;;;;5.60;2.20;;;16.70;78.40;;;;;;10466679;28;20365;-74
2022/09/20 15:26:12;;;;;;;4.13;1.63;;;16.70;79.00;;;;;;10483494;28;20234;-76
2022/09/20 15:31:14;;;;;;;3.10;1.40;;;16.60;77.90;;;;;;10484139;28;20224;-76
2022/09/20 15:36:14;;;;;;;2.23;0.87;;;16.70;76.70;;;;;;10492969;28;20214;-76
2022/09/20 15:41:15;;;;;;;2.47;0.93;;;16.70;75.70;;;;;;10483381;28;20305;-74
2022/09/20 15:46:18;;;;;;;4.17;1.10;;;16.80;74.60;;;;;;10475734;28;20308;-75
2022/09/20 15:51:19;;;;;;;2.37;1.07;;;16.90;74.80;;;;;;10475580;28;20231;-75
2022/09/20 15:56:20;;;;;;;3.10;1.10;;;16.70;74.80;;;;;;10481951;28;20222;-74
2022/09/20 16:01:21;;;;;;;1.73;0.80;;;16.60;76.60;;;;;;10476728;28;20236;-76
2022/09/20 16:06:22;;;;;;;3.80;0.83;;;16.50;75.90;;;;;;10482365;28;20268;-75
2022/09/20 16:11:23;;;;;;;1.90;1.03;;;16.30;76.60;;;;;;10488815;28;20245;-76
2022/09/20 16:16:25;;;;;;;4.27;1.00;;;16.20;77.60;;;;;;10480764;28;20233;-75
2022/09/20 16:21:27;;;;;;;2.73;1.10;;;16.10;77.80;;;;;;10476405;28;20250;-75
2022/09/20 16:26:30;;;;;;;2.57;0.90;;;16.00;79.00;;;;;;10464093;28;20724;-76
2022/09/20 16:31:41;;;;;;;0.97;0.70;;;16.00;79.60;;;;;;10467780;28;20788;-76
2022/09/20 16:36:43;;;;;;;2.83;0.93;;;15.80;80.50;;;;;;10481715;28;20730;-74
2022/09/20 16:41:47;;;;;;;1.63;0.77;;;15.50;80.60;;;;;;10485255;28;20247;-75
2022/09/20 16:46:48;;;;;;;2.70;0.60;;;15.30;81.50;;;;;;10467186;28;20643;-74
2022/09/20 16:51:51;;;;;;;1.17;0.57;;;15.10;82.70;;;;;;10479533;28;20318;-74
2022/09/20 16:56:52;;;;;;;2.50;0.90;;;14.90;83.70;;;;;;10486291;28;20699;-75
2022/09/20 17:01:52;;;;;;;5.73;1.00;;;14.70;84.80;;;;;;10462705;28;20243;-76
2022/09/20 17:06:53;;;;;;;4.13;0.83;;;14.50;86.30;;;;;;10490845;28;20250;-76
2022/09/20 17:11:54;;;;;;;1.03;0.80;;;14.40;88.40;;;;;;10480747;28;20322;-76
2022/09/20 17:16:55;;;;;;;4.10;0.90;;;14.20;90.00;;;;;;10467715;28;20648;-76
2022/09/20 17:21:56;;;;;;;3.47;1.10;;;14.00;90.40;;;;;;10465200;28;20318;-73
2022/09/20 17:26:57;;;;;;;1.47;0.97;;;13.90;91.00;;;;;;10478848;28;20299;-72
2022/09/20 17:32:04;;;;;;;5.60;1.57;;;13.70;92.00;;;;;;10481649;28;20235;-75
2022/09/20 17:37:05;;;;;;;3.00;1.40;;;13.60;93.00;;;;;;10469554;28;20365;-72
2022/09/20 17:42:05;;;;;;;2.63;1.60;;;13.50;94.20;;;;;;10479527;28;20312;-75
2022/09/20 17:47:06;;;;;;;2.87;1.70;;;13.40;95.60;;;;;;10462403;28;20258;-76
2022/09/20 17:52:10;;;;;;;3.07;1.40;;;13.30;97.50;;;;;;10465396;28;20726;-75
2022/09/20 17:57:11;;;;;;;2.87;1.57;;;13.20;99.80;;;;;;10477859;28;20231;-75
2022/09/20 18:02:15;;;;;;;3.67;1.37;;;13.10;99.90;;;;;;10469601;28;20231;-75
2022/09/20 18:07:16;;;;;;;3.73;2.03;;;13.10;99.90;;;;;;10474911;28;20234;-76
2022/09/20 18:12:16;;;;;;;5.07;1.87;;;13.00;99.90;;;;;;10458979;28;20264;-75
2022/09/20 18:17:17;;;;;;;3.60;1.50;;;12.80;99.90;;;;;;10483751;28;20238;-75
2022/09/20 18:22:19;;;;;;;4.50;1.80;;;12.80;99.90;;;;;;10465376;28;20219;-76
2022/09/20 18:27:20;;;;;;;2.33;1.23;;;12.80;99.90;;;;;;10468768;28;20230;-75
2022/09/20 18:32:23;;;;;;;2.50;1.67;;;12.80;99.90;;;;;;10484194;28;20328;-76
2022/09/20 18:37:23;;;;;;;3.30;2.23;;;12.90;99.90;;;;;;10479814;28;20239;-75
2022/09/20 18:42:25;;;;;;;5.57;2.10;;;13.00;99.90;;;;;;10474866;28;20253;-74
2022/09/20 18:47:25;;;;;;;6.57;2.80;;;13.10;99.90;;;;;;10469810;28;20228;-75
2022/09/20 18:52:26;;;;;;;7.00;2.77;;;13.20;99.90;;;;;;10451000;28;20228;-76
2022/09/20 18:57:27;;;;;;;4.47;2.60;;;13.20;99.90;;;;;;10480239;28;20750;-73
2022/09/20 19:02:46;;;;;;;2.93;1.63;;;13.30;99.90;;;;;;10499969;28;20280;-74
2022/09/20 19:08:09;;;;;;;5.70;1.70;;;13.30;99.90;;;;;;10489181;28;20277;-73
2022/09/20 19:13:43;;;;;;;3.20;1.97;;;13.20;99.90;;;;;;10475545;28;20707;-73
2022/09/20 19:19:07;;;;;;;3.73;2.10;;;13.10;99.90;;;;;;10496583;28;20233;-74
2022/09/20 19:24:30;;;;;;;4.10;1.70;;;13.10;99.90;;;;;;10475736;28;20721;-76
2022/09/20 19:29:32;;;;;;;5.47;2.10;;;13.20;99.90;;;;;;10473667;28;20230;-75
2022/09/20 19:34:32;;;;;;;8.57;4.30;;;13.20;99.90;;;;;;10482889;28;20230;-75
2022/09/20 19:39:54;;;;;;;9.70;4.97;;;13.20;99.90;;;;;;10468564;28;20249;-75
2022/09/20 19:45:27;;;;;;;8.30;4.40;;;13.10;99.90;;;;;;10490052;28;20226;-71
2022/09/20 19:50:38;;;;;;;6.27;3.17;;;13.10;99.90;;;;;;10492979;28;20259;-74
2022/09/20 19:55:42;;;;;;;8.93;3.47;;;13.10;99.90;;;;;;10487015;28;20742;-73
2022/09/20 20:00:49;;;;;;;7.57;3.10;;;13.00;99.90;;;;;;10475209;28;20239;-71
2022/09/20 20:06:06;;;;;;;8.27;3.37;;;13.00;99.90;;;;;;10479388;28;20718;-75
2022/09/20 20:11:12;;;;;;;3.47;2.00;;;12.90;99.90;;;;;;10480346;28;20225;-74
2022/09/20 20:16:24;;;;;;;5.03;2.47;;;12.90;99.90;;;;;;10457743;28;20710;-74
2022/09/20 20:21:36;;;;;;;4.03;2.33;;;12.80;99.90;;;;;;10480542;28;20241;-74
2022/09/20 20:26:36;;;;;;;3.90;2.37;;;12.60;99.90;;;;;;10473968;28;20628;-74
2022/09/20 20:31:37;;;;;;;5.33;2.13;;;12.60;99.90;;;;;;10491713;28;20317;-75
2022/09/20 20:36:38;;;;;;;3.70;2.30;;;12.50;99.90;;;;;;10474874;28;20226;-74
2022/09/20 20:41:39;;;;;;;6.57;1.90;;;12.60;99.90;;;;;;10482451;28;20230;-74
2022/09/20 20:46:40;;;;;;;3.50;1.73;;;12.50;99.90;;;;;;10483937;28;20215;-73
2022/09/20 20:51:40;;;;;;;6.60;1.77;;;12.50;99.90;;;;;;10486595;28;20227;-74
2022/09/20 20:56:41;;;;;;;3.90;2.10;;;12.40;99.90;;;;;;10499366;28;20302;-74
2022/09/20 21:01:44;;;;;;;6.53;3.10;;;12.40;99.90;;;;;;10493930;28;20227;-73
2022/09/20 21:06:45;;;;;;;3.23;1.83;;;12.30;99.90;;;;;;10496002;28;20709;-73
2022/09/20 21:11:47;;;;;;;4.30;2.07;;;12.20;99.90;;;;;;10494636;28;20223;-74
2022/09/20 21:16:50;;;;;;;4.70;2.30;;;12.10;99.90;;;;;;10477776;28;20220;-75
2022/09/20 21:21:51;;;;;;;3.90;2.43;;;12.00;99.90;;;;;;10493432;28;20788;-73
2022/09/20 21:26:52;;;;;;;4.23;2.10;;;11.90;99.90;;;;;;10482310;28;20303;-74
2022/09/20 21:31:52;;;;;;;5.30;2.80;;;11.70;99.90;;;;;;10487556;28;20277;-74
2022/09/20 21:36:53;;;;;;;5.77;3.43;;;11.50;99.90;;;;;;10474678;28;20567;-73
2022/09/20 21:41:54;;;;;;;6.67;2.83;;;11.30;99.90;;;;;;10482273;28;20598;-72
2022/09/20 21:46:55;;;;;;;6.37;2.90;;;11.20;99.90;;;;;;10503974;28;20211;-72
2022/09/20 21:51:56;;;;;;;7.10;3.23;;;11.10;99.90;;;;;;10492064;28;20291;-72
2022/09/20 21:56:58;;;;;;;2.83;2.50;;;10.90;99.90;;;;;;10486844;28;20215;-72
2022/09/20 22:01:58;;;;;;;6.43;3.10;;;10.80;99.90;;;;;;10482813;28;20243;-76
2022/09/20 22:07:02;;;;;;;5.13;3.20;;;10.70;99.90;;;;;;10497518;28;20323;-74
2022/09/20 22:12:03;;;;;;;6.10;3.27;;;10.60;99.90;;;;;;10462292;28;20296;-75
2022/09/20 22:17:04;;;;;;;4.63;3.37;;;10.50;99.90;;;;;;10489125;28;20215;-74
2022/09/20 22:22:04;;;;;;;6.00;3.47;;;10.40;99.90;;;;;;10491695;28;20220;-75
2022/09/20 22:27:05;;;;;;;5.97;3.40;;;10.40;99.90;;;;;;10485014;28;20207;-74
2022/09/20 22:32:05;;;;;;;8.80;3.83;;;10.30;99.90;;;;;;10466193;28;20227;-75
2022/09/20 22:37:06;;;;;;;7.83;4.13;;;10.20;99.90;;;;;;10484194;28;20673;-73
2022/09/20 22:42:06;;;;;;;4.33;3.37;;;10.20;99.90;;;;;;10483360;28;20216;-74
2022/09/20 22:47:10;;;;;;;6.83;3.90;;;10.10;99.90;;;;;;10487261;28;20733;-75
2022/09/20 22:52:14;;;;;;;5.57;3.10;;;10.00;99.90;;;;;;10476201;28;20331;-74
2022/09/20 22:57:14;;;;;;;8.23;3.37;;;10.00;99.90;;;;;;10493930;28;20236;-71
2022/09/20 23:02:15;;;;;;;4.70;3.50;;;10.00;99.90;;;;;;10482187;28;20222;-71
2022/09/20 23:07:15;;;;;;;5.03;3.57;;;9.90;99.90;;;;;;10478872;28;20218;-71
2022/09/20 23:12:16;;;;;;;6.13;4.20;;;9.90;99.90;;;;;;10489825;28;20225;-73
2022/09/20 23:17:16;;;;;;;6.83;4.53;;;9.80;99.90;;;;;;10481170;28;20355;-73
2022/09/20 23:22:17;;;;;;;8.00;4.40;;;9.80;99.90;;;;;;10473285;28;20221;-73
2022/09/20 23:27:18;;;;;;;6.13;4.27;;;9.70;99.90;;;;;;10485644;28;20330;-73
2022/09/20 23:32:21;;;;;;;6.00;4.20;;;9.70;99.90;;;;;;10475340;28;20227;-72
2022/09/20 23:37:22;;;;;;;7.00;4.10;;;9.70;99.90;;;;;;10477877;28;20300;-72
2022/09/20 23:42:22;;;;;;;8.40;4.43;;;9.60;99.90;;;;;;10483204;28;20689;-73
2022/09/20 23:47:23;;;;;;;8.57;3.90;;;9.50;99.90;;;;;;10496629;28;20248;-72
2022/09/20 23:52:24;;;;;;;9.67;4.00;;;9.50;99.90;;;;;;10498597;28;20230;-72
2022/09/20 23:57:30;;;;;;;5.93;4.00;;;9.50;99.90;;;;;;10481623;28;20241;-71
